createdAt,value
2022-09-01T00:00:15.108Z,1.70
2022-09-01T00:02:44.031Z,1.67
2022-09-01T00:05:12.935Z,1.70
2022-09-01T00:07:40.782Z,1.88
2022-09-01T00:10:10.351Z,1.63
2022-09-01T00:12:39.028Z,2.20
2022-09-01T00:15:11.084Z,2.00
2022-09-01T00:17:38.949Z,2.58
2022-09-01T00:20:08.082Z,1.60
2022-09-01T00:22:35.734Z,2.00
2022-09-01T00:25:04.386Z,2.22
2022-09-01T00:27:32.469Z,1.60
2022-09-01T00:30:00.825Z,1.65
2022-09-01T00:32:28.933Z,1.90
2022-09-01T00:34:56.822Z,1.80
2022-09-01T00:37:24.159Z,1.60
2022-09-01T00:39:51.530Z,2.00
2022-09-01T00:42:19.436Z,1.83
2022-09-01T00:44:46.866Z,1.88
2022-09-01T00:47:15.091Z,2.05
2022-09-01T00:49:48.011Z,2.05
2022-09-01T00:52:44.839Z,1.60
2022-09-01T00:55:33.689Z,1.83
2022-09-01T00:58:04.633Z,1.73
2022-09-01T01:00:40.866Z,1.70
2022-09-01T01:03:12.827Z,2.25
2022-09-01T01:06:08.325Z,2.00
2022-09-01T01:08:44.474Z,1.90
2022-09-01T01:11:17.927Z,1.58
2022-09-01T01:14:15.466Z,1.92
2022-09-01T01:16:47.832Z,1.48
2022-09-01T01:19:59.719Z,2.22
2022-09-01T01:23:02.697Z,1.77
2022-09-01T01:25:57.407Z,1.95
2022-09-01T01:28:39.186Z,2.45
2022-09-01T01:31:19.503Z,1.80
2022-09-01T01:33:53.363Z,2.03
2022-09-01T01:36:36.334Z,2.20
2022-09-01T01:39:23.023Z,1.73
2022-09-01T01:41:52.789Z,2.03
2022-09-01T01:44:28.007Z,1.60
2022-09-01T01:51:59.048Z,2.00
2022-09-01T01:54:32.233Z,2.20
2022-09-01T01:57:04.272Z,1.92
2022-09-01T01:59:33.462Z,2.17
2022-09-01T02:02:03.894Z,2.65
2022-09-01T02:04:34.180Z,2.40
2022-09-01T02:07:10.653Z,2.33
2022-09-01T02:09:40.871Z,1.75
2022-09-01T02:12:09.355Z,2.20
2022-09-01T02:14:36.872Z,2.30
2022-09-01T02:17:06.305Z,1.92
2022-09-01T02:19:38.526Z,2.80
2022-09-01T02:22:06.111Z,2.42
2022-09-01T02:24:34.052Z,2.17
2022-09-01T02:27:01.476Z,2.35
2022-09-01T02:29:30.748Z,2.22
2022-09-01T02:32:04.834Z,2.40
2022-09-01T02:34:32.222Z,2.53
2022-09-01T02:36:59.737Z,2.20
2022-09-01T02:39:34.899Z,2.40
2022-09-01T02:42:02.884Z,2.50
2022-09-01T02:44:31.239Z,2.13
2022-09-01T02:47:00.940Z,2.20
2022-09-01T02:49:29.818Z,2.30
2022-09-01T02:52:02.788Z,2.17
2022-09-01T02:54:33.100Z,2.20
2022-09-01T02:57:01.907Z,2.10
2022-09-01T02:59:30.989Z,2.20
2022-09-01T03:02:01.077Z,2.50
2022-09-01T03:04:34.911Z,2.70
2022-09-01T03:07:06.250Z,2.00
2022-09-01T03:09:35.172Z,2.72
2022-09-01T03:12:04.297Z,3.00
2022-09-01T03:14:32.764Z,2.53
2022-09-01T03:17:00.686Z,2.33
2022-09-01T03:19:31.864Z,2.60
2022-09-01T03:22:00.161Z,2.42
2022-09-01T03:24:30.777Z,2.25
2022-09-01T03:26:58.316Z,2.17
2022-09-01T03:29:25.667Z,2.20
2022-09-01T03:31:53.176Z,2.42
2022-09-01T03:34:23.549Z,2.55
2022-09-01T03:36:54.410Z,2.70
2022-09-01T03:39:30.504Z,2.55
2022-09-01T03:41:58.921Z,2.13
2022-09-01T03:44:27.631Z,2.63
2022-09-01T03:46:55.031Z,2.10
2022-09-01T03:49:27.767Z,2.47
2022-09-01T03:51:57.448Z,2.40
2022-09-01T03:54:27.269Z,2.60
2022-09-01T03:56:55.168Z,2.20
2022-09-01T03:59:25.282Z,2.75
2022-09-01T04:01:52.734Z,2.30
2022-09-01T04:04:20.475Z,2.70
2022-09-01T04:06:48.062Z,2.63
2022-09-01T04:09:15.761Z,2.38
2022-09-01T04:11:48.460Z,2.72
2022-09-01T04:14:16.821Z,2.47
2022-09-01T04:17:05.171Z,2.40
2022-09-01T04:19:39.432Z,2.35
2022-09-01T04:22:08.073Z,2.70
2022-09-01T04:27:15.641Z,2.20
2022-09-01T04:29:44.334Z,2.45
2022-09-01T04:32:15.885Z,2.88
2022-09-01T04:37:21.785Z,2.65
2022-09-01T04:39:57.882Z,2.50
2022-09-01T04:42:32.493Z,2.55
2022-09-01T04:45:10.501Z,2.30
2022-09-01T04:47:42.185Z,2.75
2022-09-01T04:50:17.434Z,2.78
2022-09-01T04:53:07.391Z,2.58
2022-09-01T04:55:47.084Z,3.00
2022-09-01T04:58:19.261Z,3.10
2022-09-01T05:00:52.284Z,2.53
2022-09-01T05:03:24.341Z,2.50
2022-09-01T05:06:03.974Z,2.90
2022-09-01T05:08:35.174Z,3.33
2022-09-01T05:11:07.968Z,3.10
2022-09-01T05:13:41.775Z,2.75
2022-09-01T05:16:15.870Z,2.83
2022-09-01T05:18:49.014Z,2.80
2022-09-01T05:21:22.428Z,3.15
2022-09-01T05:23:54.331Z,2.90
2022-09-01T05:26:29.970Z,3.15
2022-09-01T05:29:10.710Z,3.38
2022-09-01T05:31:38.927Z,3.05
2022-09-01T05:34:09.637Z,2.92
2022-09-01T05:36:44.789Z,3.03
2022-09-01T05:39:13.208Z,3.10
2022-09-01T05:41:41.265Z,3.28
2022-09-01T05:44:11.260Z,3.22
2022-09-01T05:46:40.360Z,3.70
2022-09-01T05:49:14.023Z,3.00
2022-09-01T05:51:50.499Z,2.80
2022-09-01T05:54:25.561Z,3.65
2022-09-01T05:56:55.647Z,2.90
2022-09-01T05:59:31.009Z,2.97
2022-09-01T06:02:01.198Z,3.08
2022-09-01T06:04:29.942Z,3.75
2022-09-01T06:07:07.775Z,3.38
2022-09-01T06:09:42.358Z,3.40
2022-09-01T06:12:18.263Z,3.53
2022-09-01T06:14:48.436Z,3.45
2022-09-01T06:17:24.652Z,3.72
2022-09-01T06:19:56.356Z,3.45
2022-09-01T06:22:28.261Z,3.78
2022-09-01T06:25:01.856Z,3.53
2022-09-01T06:27:38.721Z,3.95
2022-09-01T06:30:15.060Z,3.70
2022-09-01T06:32:49.884Z,3.63
2022-09-01T06:35:18.166Z,3.30
2022-09-01T06:37:47.189Z,4.38
2022-09-01T06:40:28.918Z,3.55
2022-09-01T06:42:56.645Z,4.15
2022-09-01T06:45:24.907Z,3.60
2022-09-01T06:47:59.412Z,4.10
2022-09-01T06:56:13.173Z,3.95
2022-09-01T06:58:48.267Z,4.30
2022-09-01T07:01:20.384Z,3.55
2022-09-01T07:03:54.302Z,4.18
2022-09-01T07:10:23.517Z,3.20
2022-09-01T07:13:05.717Z,3.88
2022-09-01T07:18:33.950Z,3.05
2022-09-01T07:21:36.287Z,2.70
2022-09-01T07:24:13.196Z,3.13
2022-09-01T07:26:54.954Z,2.60
2022-09-01T07:29:25.742Z,3.28
2022-09-01T07:34:46.487Z,2.78
2022-09-01T07:38:46.914Z,2.88
2022-09-01T07:43:28.342Z,2.35
2022-09-01T07:51:59.783Z,3.17
2022-09-01T07:54:27.921Z,3.38
2022-09-01T07:56:57.083Z,1.92
2022-09-01T07:59:27.861Z,2.17
2022-09-01T08:02:06.666Z,2.78
2022-09-01T08:04:34.805Z,2.97
2022-09-01T08:07:04.224Z,1.90
2022-09-01T08:09:38.033Z,2.40
2022-09-01T08:12:09.130Z,2.85
2022-09-01T08:14:46.654Z,2.97
2022-09-01T08:17:18.256Z,2.20
2022-09-01T08:20:12.941Z,2.55
2022-09-01T08:22:58.683Z,2.00
2022-09-01T08:25:38.198Z,2.50
2022-09-01T08:28:06.980Z,2.55
2022-09-01T08:30:35.936Z,1.90
2022-09-01T08:33:11.427Z,2.30
2022-09-01T08:35:48.288Z,2.53
2022-09-01T08:38:16.833Z,3.08
2022-09-01T08:40:57.027Z,2.13
2022-09-01T08:44:00.292Z,2.45
2022-09-01T08:46:42.297Z,2.92
2022-09-01T08:49:25.359Z,2.22
2022-09-01T08:53:09.092Z,2.60
2022-09-01T08:55:47.455Z,2.35
2022-09-01T08:58:20.057Z,2.83
2022-09-01T09:02:00.235Z,1.95
2022-09-01T09:04:55.175Z,1.83
2022-09-01T09:07:43.726Z,1.70
2022-09-01T09:10:52.234Z,2.08
2022-09-01T09:13:38.608Z,2.00
2022-09-01T09:16:39.806Z,1.65
2022-09-01T09:19:39.643Z,1.80
2022-09-01T09:22:19.670Z,2.20
2022-09-01T09:25:19.285Z,1.83
2022-09-01T09:28:00.501Z,1.90
2022-09-01T09:30:31.443Z,1.80
2022-09-01T09:33:48.914Z,1.98
2022-09-01T09:36:25.522Z,1.70
2022-09-01T09:39:18.194Z,2.08
2022-09-01T09:42:10.490Z,2.15
2022-09-01T09:44:52.879Z,2.00
2022-09-01T09:47:46.603Z,2.42
2022-09-01T09:50:38.566Z,1.90
2022-09-01T09:53:32.570Z,1.92
2022-09-01T09:56:25.695Z,1.50
2022-09-01T09:58:53.792Z,2.03
2022-09-01T10:01:24.573Z,1.92
2022-09-01T10:04:04.380Z,1.60
2022-09-01T10:06:47.100Z,1.90
2022-09-01T10:09:38.489Z,1.42
2022-09-01T10:12:07.106Z,1.65
2022-09-01T10:14:52.014Z,2.00
2022-09-01T10:17:36.643Z,2.10
2022-09-01T10:20:21.052Z,1.27
2022-09-01T10:22:50.972Z,1.92
2022-09-01T10:25:29.084Z,1.17
2022-09-01T10:28:25.650Z,1.70
2022-09-01T10:30:56.601Z,1.77
2022-09-01T10:33:25.953Z,1.58
2022-09-01T10:35:55.894Z,1.40
2022-09-01T10:38:30.589Z,1.98
2022-09-01T10:41:14.911Z,1.60
2022-09-01T10:43:47.700Z,1.38
2022-09-01T10:46:39.007Z,1.02
2022-09-01T10:49:34.467Z,1.48
2022-09-01T10:52:07.540Z,1.10
2022-09-01T10:54:51.014Z,1.85
2022-09-01T10:57:42.911Z,1.10
2022-09-01T11:00:37.115Z,1.80
2022-09-01T11:06:13.154Z,1.40
2022-09-01T11:09:00.991Z,1.50
2022-09-01T11:12:07.481Z,1.70
2022-09-01T11:14:50.265Z,1.20
2022-09-01T11:17:33.504Z,1.45
2022-09-01T11:20:10.295Z,1.30
2022-09-01T11:23:22.018Z,1.30
2022-09-01T11:28:49.639Z,1.48
2022-09-01T11:31:38.847Z,1.38
2022-09-01T11:34:27.747Z,1.38
2022-09-01T11:37:01.232Z,1.30
2022-09-01T11:39:52.950Z,1.20
2022-09-01T11:42:40.118Z,1.42
2022-09-01T11:45:33.878Z,1.15
2022-09-01T11:48:09.570Z,1.20
2022-09-01T11:50:42.125Z,2.42
2022-09-01T11:53:20.235Z,1.20
2022-09-01T11:55:53.259Z,1.20
2022-09-01T11:58:39.187Z,1.50
2022-09-01T12:01:37.319Z,1.08
2022-09-01T12:04:31.959Z,0.90
2022-09-01T12:07:11.046Z,1.38
2022-09-01T12:09:48.100Z,1.05
2022-09-01T12:12:41.864Z,1.25
2022-09-01T12:15:25.489Z,1.20
2022-09-01T12:18:08.173Z,1.15
2022-09-01T12:20:39.103Z,1.08
2022-09-01T12:23:24.631Z,1.17
2022-09-01T12:26:01.865Z,1.42
2022-09-01T12:28:34.330Z,1.30
2022-09-01T12:31:08.152Z,1.17
2022-09-01T12:33:36.923Z,1.75
2022-09-01T12:36:28.579Z,1.10
2022-09-01T12:39:23.570Z,1.10
2022-09-01T12:42:24.513Z,1.30
2022-09-01T12:44:59.170Z,1.27
2022-09-01T12:47:48.102Z,1.30
2022-09-01T12:50:17.000Z,0.98
2022-09-01T12:52:54.858Z,1.10
2022-09-01T12:55:48.094Z,1.17
2022-09-01T12:58:26.748Z,1.00
2022-09-01T13:01:16.236Z,1.15
2022-09-01T13:04:22.720Z,1.00
2022-09-01T13:06:52.390Z,1.45
2022-09-01T13:09:20.285Z,1.42
2022-09-01T13:14:35.201Z,1.15
2022-09-01T13:17:02.575Z,1.10
2022-09-01T13:19:30.485Z,1.45
2022-09-01T13:21:58.544Z,1.55
2022-09-01T13:24:30.166Z,1.35
2022-09-01T13:29:46.967Z,1.63
2022-09-01T13:32:19.143Z,1.40
2022-09-01T13:34:51.973Z,1.35
2022-09-01T13:37:22.509Z,1.25
2022-09-01T13:39:50.821Z,1.38
2022-09-01T13:42:18.384Z,1.20
2022-09-01T13:44:49.718Z,1.08
2022-09-01T13:48:14.815Z,1.40
2022-09-01T13:50:12.242Z,1.23
2022-09-01T13:52:45.863Z,1.25
2022-09-01T13:55:43.182Z,1.33
2022-09-01T13:58:12.478Z,1.85
2022-09-01T14:00:47.119Z,1.25
2022-09-01T14:03:22.850Z,1.40
2022-09-01T14:05:51.164Z,1.48
2022-09-01T14:08:23.866Z,1.17
2022-09-01T14:10:53.738Z,1.85
2022-09-01T14:13:25.429Z,1.38
2022-09-01T14:15:54.176Z,1.73
2022-09-01T14:18:22.643Z,2.22
2022-09-01T14:20:52.237Z,1.58
2022-09-01T14:23:20.696Z,1.70
2022-09-01T14:25:51.475Z,1.30
2022-09-01T14:28:23.029Z,1.92
2022-09-01T14:33:24.430Z,1.52
2022-09-01T14:35:51.847Z,1.92
2022-09-01T14:38:20.181Z,2.08
2022-09-01T14:40:51.607Z,1.52
2022-09-01T14:43:20.025Z,1.67
2022-09-01T14:45:48.120Z,2.30
2022-09-01T14:48:20.727Z,1.80
2022-09-01T14:50:50.932Z,1.70
2022-09-01T14:53:19.469Z,1.42
2022-09-01T14:55:46.930Z,1.80
2022-09-01T14:58:14.315Z,1.55
2022-09-01T15:00:42.249Z,1.60
2022-09-01T15:03:09.890Z,1.45
2022-09-01T15:05:40.111Z,1.50
2022-09-01T15:08:15.552Z,1.52
2022-09-01T15:10:45.099Z,1.73
2022-09-01T15:13:13.663Z,1.67
2022-09-01T15:15:41.621Z,1.77
2022-09-01T15:18:09.233Z,1.42
2022-09-01T15:20:46.273Z,2.30
2022-09-01T15:23:25.908Z,1.33
2022-09-01T15:25:55.996Z,1.73
2022-09-01T15:28:25.480Z,1.48
2022-09-01T15:30:54.494Z,2.05
2022-09-01T15:33:22.016Z,1.83
2022-09-01T15:35:49.390Z,1.73
2022-09-01T15:38:17.936Z,1.90
2022-09-01T15:40:57.750Z,1.80
2022-09-01T15:43:30.503Z,1.65
2022-09-01T15:46:07.323Z,1.83
2022-09-01T15:48:38.636Z,1.58
2022-09-01T15:51:37.381Z,1.77
2022-09-01T15:54:19.832Z,2.10
2022-09-01T15:56:59.644Z,1.90
2022-09-01T15:59:27.014Z,1.52
2022-09-01T16:01:59.692Z,2.00
2022-09-01T16:04:57.085Z,1.65
2022-09-01T16:07:29.569Z,1.40
2022-09-01T16:10:06.986Z,1.52
2022-09-01T16:12:35.810Z,2.08
2022-09-01T16:15:03.777Z,1.92
2022-09-01T16:18:05.290Z,1.83
2022-09-01T16:21:32.644Z,2.10
2022-09-01T16:24:10.113Z,2.10
2022-09-01T16:26:38.438Z,1.95
2022-09-01T16:29:55.701Z,1.95
2022-09-01T16:32:24.153Z,1.98
2022-09-01T16:34:53.437Z,1.83
2022-09-01T16:37:56.767Z,1.95
2022-09-01T16:41:43.943Z,2.28
2022-09-01T16:44:50.812Z,2.00
2022-09-01T16:47:38.730Z,2.30
2022-09-01T16:50:40.206Z,1.85
2022-09-01T16:53:25.569Z,1.80
2022-09-01T16:56:09.545Z,1.77
2022-09-01T16:59:23.951Z,1.60
2022-09-01T17:02:38.128Z,1.90
2022-09-01T17:05:57.191Z,2.10
2022-09-01T17:08:41.660Z,1.90
2022-09-01T17:11:26.941Z,2.20
2022-09-01T17:13:56.147Z,2.13
2022-09-01T17:16:39.484Z,2.30
2022-09-01T17:19:21.119Z,2.65
2022-09-01T17:22:11.057Z,2.55
2022-09-01T17:24:51.263Z,2.60
2022-09-01T17:28:09.113Z,2.03
2022-09-01T17:30:53.527Z,2.40
2022-09-01T17:33:50.053Z,2.63
2022-09-01T17:36:49.004Z,2.55
2022-09-01T17:39:49.368Z,2.60
2022-09-01T17:42:32.746Z,2.58
2022-09-01T17:45:30.744Z,2.75
2022-09-01T17:48:18.171Z,2.10
2022-09-01T17:51:06.818Z,2.28
2022-09-01T17:53:58.168Z,2.70
2022-09-01T17:56:37.289Z,2.35
2022-09-01T17:59:38.596Z,2.78
2022-09-01T18:02:41.908Z,2.50
2022-09-01T18:05:24.644Z,2.40
2022-09-01T18:08:07.150Z,2.35
2022-09-01T18:11:15.821Z,2.00
2022-09-01T18:13:53.143Z,2.28
2022-09-01T18:16:41.713Z,1.90
2022-09-01T18:19:24.630Z,2.10
2022-09-01T18:22:07.102Z,2.03
2022-09-01T18:25:07.682Z,2.17
2022-09-01T18:27:36.780Z,2.10
2022-09-01T18:30:06.164Z,2.45
2022-09-01T18:33:19.342Z,2.03
2022-09-01T18:36:22.086Z,2.20
2022-09-01T18:40:00.760Z,2.33
2022-09-01T18:42:41.580Z,2.60
2022-09-01T18:45:53.697Z,2.00
2022-09-01T18:49:03.687Z,1.85
2022-09-01T18:52:10.932Z,2.13
2022-09-01T18:55:17.208Z,2.03
2022-09-01T18:57:53.275Z,1.92
2022-09-01T19:00:52.219Z,2.17
2022-09-01T19:03:54.222Z,1.92
2022-09-01T19:06:59.895Z,2.80
2022-09-01T19:09:59.937Z,2.03
2022-09-01T19:13:17.749Z,1.80
2022-09-01T19:16:58.390Z,2.25
2022-09-01T19:19:57.564Z,1.73
2022-09-01T19:23:16.856Z,2.25
2022-09-01T19:25:45.525Z,2.33
2022-09-01T19:28:52.824Z,2.42
2022-09-01T19:31:34.405Z,2.07
2022-09-01T19:34:25.709Z,1.90
2022-09-01T19:36:59.737Z,3.05
2022-09-01T19:39:39.869Z,2.45
2022-09-01T19:42:42.686Z,2.70
2022-09-01T19:45:36.083Z,1.80
2022-09-01T19:48:17.045Z,2.50
2022-09-01T19:51:11.766Z,2.67
2022-09-01T19:54:17.780Z,2.13
2022-09-01T19:57:19.045Z,1.80
2022-09-01T20:00:28.165Z,2.10
2022-09-01T20:03:12.662Z,2.10
2022-09-01T20:06:08.514Z,1.83
2022-09-01T20:09:05.790Z,2.15
2022-09-01T20:12:22.529Z,2.10
2022-09-01T20:15:24.475Z,2.17
2022-09-01T20:18:19.900Z,2.03
2022-09-01T20:20:50.997Z,2.00
2022-09-01T20:23:37.541Z,2.13
2022-09-01T20:26:29.045Z,1.80
2022-09-01T20:29:45.872Z,1.73
2022-09-01T20:32:27.647Z,1.90
2022-09-01T20:35:20.666Z,2.85
2022-09-01T20:38:01.059Z,2.00
2022-09-01T20:40:41.131Z,2.22
2022-09-01T20:43:30.848Z,2.22
2022-09-01T20:45:58.382Z,1.90
2022-09-01T20:48:30.449Z,2.10
2022-09-01T20:51:27.542Z,1.73
2022-09-01T20:54:31.294Z,2.42
2022-09-01T20:57:55.365Z,2.20
2022-09-01T21:00:30.427Z,2.03
2022-09-01T21:03:49.072Z,2.30
2022-09-01T21:07:13.852Z,1.83
2022-09-01T21:09:59.882Z,1.88
2022-09-01T21:12:42.060Z,1.70
2022-09-01T21:15:33.886Z,1.75
2022-09-01T21:18:39.893Z,2.08
2022-09-01T21:21:45.497Z,1.40
2022-09-01T21:24:13.312Z,1.98
2022-09-01T21:26:40.713Z,1.70
2022-09-01T21:29:55.593Z,1.98
2022-09-01T21:32:24.078Z,1.90
2022-09-01T21:34:53.084Z,1.60
2022-09-01T21:37:23.608Z,1.55
2022-09-01T21:39:53.983Z,1.38
2022-09-01T21:42:44.787Z,1.85
2022-09-01T21:45:18.160Z,2.00
2022-09-01T21:47:48.727Z,2.13
2022-09-01T21:50:20.938Z,2.20
2022-09-01T21:52:48.777Z,1.92
2022-09-01T21:55:22.075Z,1.92
2022-09-01T21:57:51.798Z,1.75
2022-09-01T22:00:36.303Z,2.00
2022-09-01T22:03:04.118Z,2.20
2022-09-01T22:05:33.361Z,1.92
2022-09-01T22:08:01.500Z,2.15
2022-09-01T22:10:31.844Z,1.48
2022-09-01T22:13:03.695Z,2.10
2022-09-01T22:15:31.710Z,1.92
2022-09-01T22:17:59.323Z,1.80
2022-09-01T22:20:28.555Z,1.50
2022-09-01T22:22:57.896Z,1.90
2022-09-01T22:25:25.611Z,2.20
2022-09-01T22:27:52.929Z,1.77
2022-09-01T22:30:20.429Z,1.52
2022-09-01T22:32:47.993Z,2.60
2022-09-01T22:35:18.323Z,1.58
2022-09-01T22:37:46.625Z,2.63
2022-09-01T22:40:15.942Z,2.17
2022-09-01T22:42:44.275Z,1.73
2022-09-01T22:45:15.003Z,1.95
2022-09-01T22:47:42.741Z,2.17
2022-09-01T22:50:11.421Z,2.13
2022-09-01T22:52:39.721Z,2.40
2022-09-01T22:55:09.875Z,1.92
2022-09-01T22:57:37.710Z,2.63
2022-09-01T23:00:11.248Z,2.10
2022-09-01T23:02:44.819Z,2.20
2022-09-01T23:05:12.265Z,1.80
2022-09-01T23:07:39.993Z,2.40
2022-09-01T23:10:19.467Z,2.00
2022-09-01T23:12:49.406Z,2.38
2022-09-01T23:15:20.617Z,1.60
2022-09-01T23:17:56.399Z,1.73
2022-09-01T23:20:23.925Z,1.42
2022-09-01T23:22:51.244Z,1.90
2022-09-01T23:25:18.961Z,1.63
2022-09-01T23:27:47.100Z,1.60
2022-09-01T23:30:16.246Z,1.88
2022-09-01T23:32:44.120Z,1.67
2022-09-01T23:35:12.360Z,1.60
2022-09-01T23:37:39.688Z,1.60
2022-09-01T23:40:08.780Z,1.77
2022-09-01T23:42:36.322Z,1.75
2022-09-01T23:45:04.949Z,1.38
2022-09-01T23:47:32.275Z,1.60
2022-09-01T23:49:59.541Z,1.67
2022-09-01T23:52:26.993Z,1.73
2022-09-01T23:54:54.587Z,1.42
2022-09-01T23:57:21.997Z,1.70
2022-09-01T23:59:49.657Z,1.48
